Time;durP1;ratioP1;P1;durP2;ratioP2;P2;SDS_P1;SDS_P2;PMS_P1;PMS_P2;Temp;Humidity;BMP_temperature;BMP_pressure;BME280_temperature;BME280_humidity;BME280_pressure;Samples;Min_cycle;Max_cycle;Signal;HPM_P1;HPM_P2
2020/12/16 00:01:05;;;;;;;53.03;30.27;;;2.80;92.70;;;;;;5076967;28;20198;-80
2020/12/16 00:03:33;;;;;;;57.43;29.63;;;2.80;92.70;;;;;;5058501;28;20225;-81
2020/12/16 00:06:02;;;;;;;52.63;29.77;;;2.80;92.70;;;;;;5074981;28;20240;-79
2020/12/16 00:08:30;;;;;;;52.00;29.37;;;2.80;92.70;;;;;;5069011;28;20442;-79
2020/12/16 00:10:58;;;;;;;59.37;29.20;;;2.90;92.70;;;;;;5080200;28;20185;-79
2020/12/16 00:13:26;;;;;;;56.33;28.87;;;2.80;92.70;;;;;;5075621;28;20205;-80
2020/12/16 00:15:57;;;;;;;53.33;28.50;;;2.80;92.70;;;;;;5065372;28;20217;-80
2020/12/16 00:18:26;;;;;;;57.80;29.37;;;2.80;92.70;;;;;;5063179;28;20233;-81
2020/12/16 00:20:54;;;;;;;54.53;28.73;;;2.80;92.70;;;;;;5054863;28;20201;-80
2020/12/16 00:23:22;;;;;;;50.87;27.27;;;2.80;92.70;;;;;;5044363;28;20733;-79
2020/12/16 00:25:49;;;;;;;54.73;28.40;;;2.80;92.70;;;;;;5069486;28;20380;-80
2020/12/16 00:28:17;;;;;;;52.20;28.20;;;2.80;92.70;;;;;;5047637;28;20231;-81
2020/12/16 00:30:47;;;;;;;53.43;28.33;;;2.80;92.70;;;;;;5054152;28;20843;-79
2020/12/16 00:33:16;;;;;;;50.47;26.83;;;2.80;92.70;;;;;;5052135;28;20489;-81
2020/12/16 00:35:46;;;;;;;51.53;27.13;;;2.80;92.60;;;;;;5042307;28;20222;-81
2020/12/16 00:38:14;;;;;;;55.30;28.07;;;2.80;92.60;;;;;;5046935;28;20431;-80
2020/12/16 00:40:41;;;;;;;49.63;26.97;;;2.80;92.60;;;;;;5072535;28;20228;-81
2020/12/16 00:43:09;;;;;;;48.40;26.50;;;2.80;92.60;;;;;;5059707;28;20217;-79
2020/12/16 00:45:38;;;;;;;48.70;26.83;;;2.90;92.60;;;;;;5066973;28;20200;-79
2020/12/16 00:48:06;;;;;;;49.23;28.10;;;2.90;92.60;;;;;;5056510;28;20550;-78
2020/12/16 00:50:33;;;;;;;49.90;26.87;;;2.90;92.50;;;;;;5043994;28;20313;-80
2020/12/16 00:53:02;;;;;;;48.20;26.73;;;2.90;92.50;;;;;;5058506;28;20201;-80
2020/12/16 00:55:30;;;;;;;49.90;26.43;;;2.90;92.50;;;;;;5052190;28;20613;-82
2020/12/16 00:57:59;;;;;;;49.40;26.27;;;2.90;92.50;;;;;;5042447;28;20202;-79
2020/12/16 01:00:27;;;;;;;48.50;26.43;;;2.80;92.50;;;;;;5039076;28;20719;-78
2020/12/16 01:02:54;;;;;;;53.93;28.80;;;2.80;92.50;;;;;;5064946;28;20186;-81
2020/12/16 01:05:22;;;;;;;48.63;26.03;;;2.80;92.50;;;;;;5071010;28;20249;-81
2020/12/16 01:07:50;;;;;;;52.70;26.50;;;2.80;92.50;;;;;;5053506;28;20497;-80
2020/12/16 01:10:19;;;;;;;52.63;27.20;;;2.80;92.50;;;;;;5054006;28;20222;-80
2020/12/16 01:12:48;;;;;;;49.00;25.77;;;2.80;92.60;;;;;;5044251;28;20495;-81
2020/12/16 01:15:18;;;;;;;47.63;26.17;;;2.80;92.60;;;;;;5039148;28;20225;-82
2020/12/16 01:17:48;;;;;;;47.80;26.57;;;2.70;92.60;;;;;;5036383;28;20190;-80
2020/12/16 01:20:17;;;;;;;49.90;26.33;;;2.80;92.60;;;;;;5043762;28;20508;-81
2020/12/16 01:22:46;;;;;;;49.53;26.53;;;2.70;92.60;;;;;;5053420;28;20559;-79
2020/12/16 01:25:14;;;;;;;49.20;27.13;;;2.70;92.60;;;;;;5052210;28;20571;-81
2020/12/16 01:27:43;;;;;;;47.27;25.67;;;2.80;92.60;;;;;;5047133;28;20212;-79
2020/12/16 01:30:11;;;;;;;51.53;27.47;;;2.60;92.60;;;;;;5083089;28;20191;-80
2020/12/16 01:32:39;;;;;;;51.17;28.33;;;2.60;92.70;;;;;;5053490;28;20206;-81
2020/12/16 01:35:08;;;;;;;48.53;26.20;;;2.60;92.70;;;;;;5034720;28;20210;-78
2020/12/16 01:37:35;;;;;;;52.83;27.33;;;2.60;92.70;;;;;;5067689;28;20182;-79
2020/12/16 01:40:04;;;;;;;50.20;26.00;;;2.60;92.70;;;;;;5064071;28;20300;-81
2020/12/16 01:42:32;;;;;;;49.60;26.77;;;2.60;92.70;;;;;;5072550;28;20275;-82
2020/12/16 01:45:04;;;;;;;47.33;26.13;;;2.60;92.70;;;;;;5067527;28;20292;-81
2020/12/16 01:47:31;;;;;;;54.90;27.37;;;2.60;92.70;;;;;;5045312;28;20740;-80
2020/12/16 01:49:59;;;;;;;47.23;25.40;;;2.60;92.80;;;;;;5054244;28;20290;-78
2020/12/16 01:52:28;;;;;;;46.20;25.93;;;2.60;92.80;;;;;;5054559;28;20566;-80
2020/12/16 01:54:57;;;;;;;49.47;27.53;;;2.60;92.70;;;;;;5041527;28;20949;-79
2020/12/16 01:57:26;;;;;;;55.73;29.33;;;2.70;92.70;;;;;;5045196;28;20198;-81
2020/12/16 01:59:57;;;;;;;48.13;26.17;;;2.70;92.70;;;;;;5053366;28;20229;-80
2020/12/16 02:02:28;;;;;;;45.07;25.30;;;2.60;92.70;;;;;;5047265;28;20605;-81
2020/12/16 02:04:59;;;;;;;48.63;26.13;;;2.60;92.70;;;;;;5054992;28;20212;-79
2020/12/16 02:07:27;;;;;;;45.83;25.93;;;2.60;92.70;;;;;;5046599;28;20759;-80
2020/12/16 02:09:54;;;;;;;50.47;27.27;;;2.60;92.70;;;;;;5034338;28;20208;-80
2020/12/16 02:12:24;;;;;;;51.90;26.93;;;2.60;92.70;;;;;;5052147;28;20212;-81
2020/12/16 02:14:51;;;;;;;51.37;28.17;;;2.60;92.70;;;;;;5044278;28;20722;-79
2020/12/16 02:17:19;;;;;;;48.77;25.57;;;2.60;92.70;;;;;;5052799;28;20198;-79
2020/12/16 02:19:54;;;;;;;50.93;26.37;;;2.60;92.70;;;;;;5052497;28;20197;-80
2020/12/16 02:22:23;;;;;;;50.17;26.03;;;2.50;92.70;;;;;;5050900;28;20197;-80
2020/12/16 02:24:59;;;;;;;51.57;26.10;;;2.50;92.70;;;;;;5055775;28;20194;-79
2020/12/16 02:27:28;;;;;;;48.97;26.63;;;2.50;92.70;;;;;;5067572;28;20281;-82
2020/12/16 02:29:56;;;;;;;50.13;26.40;;;2.40;92.70;;;;;;5076757;28;20279;-79
2020/12/16 02:32:26;;;;;;;54.13;26.77;;;2.40;92.70;;;;;;5080317;28;20186;-80
2020/12/16 02:34:54;;;;;;;48.50;27.73;;;2.40;92.70;;;;;;5068166;28;20251;-80
2020/12/16 02:37:22;;;;;;;49.90;27.83;;;2.40;92.80;;;;;;5065751;28;20202;-80
2020/12/16 02:39:50;;;;;;;48.80;26.30;;;2.40;92.80;;;;;;5059088;28;20239;-82
2020/12/16 02:42:23;;;;;;;51.57;27.27;;;2.30;92.80;;;;;;5072837;28;20198;-80
2020/12/16 02:44:51;;;;;;;51.43;26.93;;;2.30;92.80;;;;;;5078876;28;20200;-82
2020/12/16 02:47:19;;;;;;;47.53;26.23;;;2.30;92.80;;;;;;5060146;28;20286;-80
2020/12/16 02:49:47;;;;;;;53.07;27.13;;;2.20;92.80;;;;;;5061688;28;20227;-82
2020/12/16 02:52:14;;;;;;;50.07;26.13;;;2.30;92.80;;;;;;5066581;28;20201;-82
2020/12/16 02:54:42;;;;;;;52.60;26.40;;;2.20;92.90;;;;;;5051106;28;20527;-80
2020/12/16 02:57:09;;;;;;;51.33;27.80;;;2.30;92.90;;;;;;5057839;28;20217;-80
2020/12/16 02:59:39;;;;;;;47.60;26.53;;;2.30;92.90;;;;;;5066052;28;20221;-81
2020/12/16 03:02:06;;;;;;;53.40;27.23;;;2.30;92.90;;;;;;5031221;28;20228;-79
2020/12/16 03:04:34;;;;;;;55.93;27.90;;;2.30;93.00;;;;;;5063383;28;20181;-80
2020/12/16 03:07:02;;;;;;;52.43;28.03;;;2.30;92.90;;;;;;5062024;28;20453;-80
2020/12/16 03:09:30;;;;;;;47.53;26.40;;;2.30;92.90;;;;;;5064004;28;20431;-80
2020/12/16 03:11:57;;;;;;;49.27;26.80;;;2.30;92.90;;;;;;5050894;28;20228;-82
2020/12/16 03:14:25;;;;;;;51.47;27.17;;;2.30;92.90;;;;;;5048651;28;20236;-81
2020/12/16 03:16:55;;;;;;;55.47;28.70;;;2.30;92.80;;;;;;5054707;28;20201;-79
2020/12/16 03:19:23;;;;;;;54.83;27.57;;;2.20;92.80;;;;;;5072598;28;20341;-81
2020/12/16 03:21:53;;;;;;;54.23;28.03;;;2.30;92.90;;;;;;5054475;28;20205;-79
2020/12/16 03:24:21;;;;;;;54.73;28.63;;;2.30;92.90;;;;;;5055660;28;20665;-81
2020/12/16 03:26:48;;;;;;;51.60;27.77;;;2.20;92.80;;;;;;5045132;28;20235;-80
2020/12/16 03:29:16;;;;;;;52.30;28.00;;;2.20;92.80;;;;;;5034047;28;20688;-78
2020/12/16 03:31:43;;;;;;;51.37;27.60;;;2.10;92.80;;;;;;5054126;28;20229;-81
2020/12/16 03:34:12;;;;;;;56.53;27.90;;;2.10;92.80;;;;;;5045556;28;20215;-79
2020/12/16 03:36:40;;;;;;;51.80;28.53;;;2.10;92.90;;;;;;5049135;28;20210;-78
2020/12/16 03:39:07;;;;;;;52.87;28.40;;;2.10;92.90;;;;;;5049726;28;20236;-81
2020/12/16 03:41:35;;;;;;;47.27;27.70;;;2.10;92.90;;;;;;5044235;28;20578;-81
2020/12/16 03:44:03;;;;;;;55.97;29.73;;;2.10;92.90;;;;;;5033385;28;20317;-80
2020/12/16 03:46:31;;;;;;;47.63;27.53;;;2.20;92.90;;;;;;5049861;28;20189;-80
2020/12/16 03:48:58;;;;;;;52.17;28.30;;;2.20;92.90;;;;;;5033020;28;20522;-81
2020/12/16 03:51:27;;;;;;;53.03;28.90;;;2.20;92.90;;;;;;5048830;28;20530;-79
2020/12/16 03:53:55;;;;;;;51.67;29.20;;;2.10;92.90;;;;;;5049544;28;20613;-79
2020/12/16 03:56:22;;;;;;;49.47;27.53;;;2.20;92.90;;;;;;5038481;28;20228;-79
2020/12/16 03:58:50;;;;;;;55.60;29.27;;;2.20;92.90;;;;;;5052116;28;20201;-81
2020/12/16 04:01:20;;;;;;;53.90;30.33;;;2.20;92.90;;;;;;5050028;28;20210;-81
2020/12/16 04:03:48;;;;;;;56.83;29.20;;;2.20;92.90;;;;;;5046902;28;20955;-80
2020/12/16 04:06:16;;;;;;;58.23;30.37;;;2.20;92.90;;;;;;5049013;28;20194;-79
2020/12/16 04:08:45;;;;;;;52.73;28.53;;;2.20;92.80;;;;;;5068524;28;20433;-80
2020/12/16 04:11:15;;;;;;;57.77;29.70;;;2.20;92.80;;;;;;5037124;28;20838;-81
2020/12/16 04:13:43;;;;;;;56.50;30.47;;;2.20;92.80;;;;;;5051591;28;20271;-80
2020/12/16 04:16:14;;;;;;;59.37;30.50;;;2.20;92.80;;;;;;5039574;28;20209;-81
2020/12/16 04:18:41;;;;;;;54.10;28.87;;;2.10;92.70;;;;;;5040892;28;20671;-80
2020/12/16 04:21:09;;;;;;;55.57;29.33;;;2.10;92.70;;;;;;5054718;28;20248;-80
2020/12/16 04:23:38;;;;;;;52.40;28.97;;;2.10;92.80;;;;;;5036721;28;20674;-79
2020/12/16 04:26:06;;;;;;;56.80;31.07;;;2.20;92.70;;;;;;5033615;28;20740;-80
2020/12/16 04:28:34;;;;;;;50.93;27.40;;;2.20;92.70;;;;;;5045405;28;20676;-80
2020/12/16 04:31:03;;;;;;;51.93;29.27;;;2.10;92.70;;;;;;5050639;28;20190;-81
2020/12/16 04:33:31;;;;;;;54.30;29.90;;;2.20;92.80;;;;;;5056084;28;20270;-81
2020/12/16 04:35:59;;;;;;;58.37;30.90;;;2.20;92.80;;;;;;5065359;28;20279;-80
2020/12/16 04:38:27;;;;;;;53.67;30.80;;;2.20;92.70;;;;;;5050913;28;20302;-79
2020/12/16 04:40:55;;;;;;;56.03;29.80;;;2.20;92.70;;;;;;5059134;28;20219;-80
2020/12/16 04:43:24;;;;;;;55.90;30.40;;;2.20;92.70;;;;;;5034491;28;20691;-81
2020/12/16 04:45:52;;;;;;;52.43;29.80;;;2.20;92.60;;;;;;5054044;28;20236;-80
2020/12/16 04:48:20;;;;;;;56.33;29.47;;;2.30;92.60;;;;;;5051387;28;20351;-81
2020/12/16 04:50:48;;;;;;;54.57;30.43;;;2.30;92.60;;;;;;5042834;28;20240;-79
2020/12/16 04:53:19;;;;;;;52.47;29.90;;;2.30;92.60;;;;;;5039568;28;20213;-78
2020/12/16 04:55:47;;;;;;;61.23;30.90;;;2.30;92.50;;;;;;5034979;28;20303;-80
2020/12/16 04:58:15;;;;;;;57.10;30.20;;;2.20;92.50;;;;;;5058704;28;20206;-79
2020/12/16 05:00:44;;;;;;;54.70;30.60;;;2.30;92.50;;;;;;5049407;28;20467;-81
2020/12/16 05:03:11;;;;;;;57.73;30.20;;;2.20;92.50;;;;;;5057667;28;20208;-80
2020/12/16 05:05:39;;;;;;;54.67;30.77;;;2.30;92.50;;;;;;5054829;28;20209;-80
2020/12/16 05:08:10;;;;;;;55.20;29.63;;;2.30;92.50;;;;;;5043621;28;20365;-81
2020/12/16 05:10:39;;;;;;;52.07;30.00;;;2.30;92.50;;;;;;5046197;28;20288;-81
2020/12/16 05:13:09;;;;;;;54.20;29.33;;;2.30;92.50;;;;;;5050313;28;20678;-81
2020/12/16 05:15:43;;;;;;;53.40;28.83;;;2.20;92.50;;;;;;5048835;28;20544;-81
2020/12/16 05:18:13;;;;;;;58.10;30.93;;;2.30;92.50;;;;;;5061061;28;20181;-81
2020/12/16 05:20:43;;;;;;;58.27;31.33;;;2.20;92.50;;;;;;5052933;28;20521;-79
2020/12/16 05:23:12;;;;;;;56.10;31.23;;;2.30;92.50;;;;;;5049441;28;20456;-79
2020/12/16 05:25:55;;;;;;;59.90;30.37;;;2.30;92.50;;;;;;5048076;28;20399;-77
2020/12/16 05:28:26;;;;;;;58.97;30.03;;;2.30;92.50;;;;;;5034226;28;20245;-81
2020/12/16 05:30:55;;;;;;;54.00;28.83;;;2.30;92.50;;;;;;5040805;28;20254;-79
2020/12/16 05:33:24;;;;;;;54.33;29.33;;;2.40;92.40;;;;;;5058959;28;20249;-80
2020/12/16 05:35:53;;;;;;;53.97;28.87;;;2.50;92.40;;;;;;5063587;28;20205;-80
2020/12/16 05:38:22;;;;;;;55.37;28.90;;;2.40;92.30;;;;;;5069185;28;20255;-81
2020/12/16 05:40:50;;;;;;;53.43;30.70;;;2.30;92.30;;;;;;5051421;28;20203;-81
2020/12/16 05:43:23;;;;;;;56.37;30.37;;;2.40;92.30;;;;;;5047233;28;20393;-80
2020/12/16 05:45:55;;;;;;;54.87;28.73;;;2.30;92.30;;;;;;5047962;28;20223;-80
2020/12/16 05:48:28;;;;;;;52.03;29.50;;;2.30;92.30;;;;;;5037503;28;20574;-78
2020/12/16 05:50:59;;;;;;;60.43;29.33;;;2.40;92.40;;;;;;5044831;28;20514;-81
2020/12/16 05:53:28;;;;;;;61.40;30.67;;;2.40;92.40;;;;;;5045937;28;20209;-80
2020/12/16 05:55:59;;;;;;;60.00;29.93;;;2.40;92.40;;;;;;5044867;28;20296;-80
2020/12/16 05:58:29;;;;;;;53.30;30.00;;;2.40;92.30;;;;;;5075278;28;20233;-80
2020/12/16 06:00:59;;;;;;;52.87;28.87;;;2.40;92.30;;;;;;5063988;28;20190;-81
2020/12/16 06:03:31;;;;;;;49.80;27.10;;;2.50;92.30;;;;;;5058688;28;20632;-81
2020/12/16 06:06:00;;;;;;;48.70;27.77;;;2.50;92.30;;;;;;5038015;28;20808;-80
2020/12/16 06:08:30;;;;;;;50.73;27.67;;;2.50;92.20;;;;;;5046532;28;20222;-80
2020/12/16 06:10:58;;;;;;;53.27;28.33;;;2.50;92.10;;;;;;5039555;28;20766;-81
2020/12/16 06:13:25;;;;;;;49.43;26.20;;;2.60;92.10;;;;;;5040802;28;20199;-80
2020/12/16 06:15:56;;;;;;;51.73;28.13;;;2.60;92.10;;;;;;5047969;28;20351;-82
2020/12/16 06:18:26;;;;;;;48.83;26.83;;;2.70;91.90;;;;;;5045134;28;20292;-80
2020/12/16 06:20:55;;;;;;;53.60;28.10;;;2.70;91.90;;;;;;5044174;28;20708;-80
2020/12/16 06:23:41;;;;;;;51.43;28.70;;;2.70;91.90;;;;;;5048177;28;20994;-79
2020/12/16 06:26:13;;;;;;;45.17;26.20;;;2.70;91.90;;;;;;5046059;28;20483;-81
2020/12/16 06:28:42;;;;;;;50.83;27.43;;;2.70;91.90;;;;;;5058472;28;20482;-81
2020/12/16 06:31:21;;;;;;;49.80;27.00;;;2.60;91.90;;;;;;5046454;28;20265;-79
2020/12/16 06:33:57;;;;;;;50.40;27.50;;;2.60;91.90;;;;;;5037074;28;20269;-80
2020/12/16 06:36:30;;;;;;;48.37;26.17;;;2.70;91.90;;;;;;5046400;28;20212;-79
2020/12/16 06:38:58;;;;;;;49.83;26.80;;;2.70;91.90;;;;;;5046201;28;20627;-81
2020/12/16 06:41:27;;;;;;;48.70;27.60;;;2.70;91.90;;;;;;5051871;28;20501;-80
2020/12/16 06:43:55;;;;;;;44.67;25.57;;;2.70;91.90;;;;;;5042632;28;20209;-81
2020/12/16 06:46:41;;;;;;;49.37;27.97;;;2.70;91.90;;;;;;5035775;28;20216;-81
2020/12/16 06:49:24;;;;;;;52.00;26.47;;;2.70;92.00;;;;;;5048659;28;20231;-82
2020/12/16 06:51:58;;;;;;;45.77;25.53;;;2.70;91.90;;;;;;5039993;28;21083;-80
2020/12/16 06:54:27;;;;;;;49.17;25.63;;;2.70;91.90;;;;;;5034321;28;20201;-80
2020/12/16 06:57:12;;;;;;;49.77;26.70;;;2.70;91.90;;;;;;5041501;28;20398;-78
2020/12/16 06:59:48;;;;;;;47.00;26.63;;;2.70;91.90;;;;;;5050458;28;20202;-79
2020/12/16 07:02:22;;;;;;;46.30;26.70;;;2.80;92.00;;;;;;5048556;28;20639;-81
2020/12/16 07:04:49;;;;;;;43.87;25.03;;;2.80;91.90;;;;;;5051209;28;21145;-82
2020/12/16 07:07:44;;;;;;;47.93;25.70;;;2.90;91.80;;;;;;5063944;28;20534;-82
2020/12/16 07:10:40;;;;;;;46.63;26.40;;;2.90;91.70;;;;;;5044535;28;20208;-82
2020/12/16 07:13:27;;;;;;;45.93;25.80;;;3.00;91.60;;;;;;5045268;28;20528;-80
2020/12/16 07:15:57;;;;;;;45.30;24.87;;;3.10;91.60;;;;;;5048917;28;20215;-81
2020/12/16 07:18:47;;;;;;;41.93;24.87;;;3.20;91.50;;;;;;5053400;28;20206;-79
2020/12/16 07:21:23;;;;;;;40.83;25.17;;;3.20;91.30;;;;;;5039847;28;20342;-79
2020/12/16 07:24:11;;;;;;;42.30;24.57;;;3.20;91.20;;;;;;5061640;28;20209;-80
2020/12/16 07:26:51;;;;;;;45.23;23.80;;;3.30;91.10;;;;;;5066881;28;20207;-82
2020/12/16 07:29:28;;;;;;;43.03;24.47;;;3.30;91.10;;;;;;5065753;28;20529;-80
2020/12/16 07:32:07;;;;;;;43.13;24.70;;;3.40;91.00;;;;;;5042359;28;20215;-81
2020/12/16 07:34:44;;;;;;;44.00;25.50;;;3.40;90.90;;;;;;5049111;28;21096;-79
2020/12/16 07:37:13;;;;;;;40.93;23.77;;;3.40;90.90;;;;;;5053605;28;20196;-82
2020/12/16 07:39:47;;;;;;;41.90;24.50;;;3.40;90.90;;;;;;5056627;28;20675;-81
2020/12/16 07:42:23;;;;;;;45.27;25.03;;;3.40;90.90;;;;;;5047518;28;20495;-80
2020/12/16 07:44:54;;;;;;;42.50;23.50;;;3.40;90.90;;;;;;5044499;28;20372;-80
2020/12/16 07:47:24;;;;;;;41.43;24.17;;;3.40;90.90;;;;;;5055075;28;20467;-77
2020/12/16 07:49:52;;;;;;;43.23;25.17;;;3.40;90.80;;;;;;5068290;28;21043;-79
2020/12/16 07:52:24;;;;;;;47.13;25.83;;;3.40;90.90;;;;;;5066185;28;20319;-79
2020/12/16 07:54:56;;;;;;;44.60;26.23;;;3.40;90.90;;;;;;5075275;28;20186;-80
2020/12/16 07:57:28;;;;;;;41.67;25.00;;;3.60;90.90;;;;;;5070494;28;20207;-80
2020/12/16 07:59:56;;;;;;;40.30;25.40;;;3.50;90.80;;;;;;5049428;28;20198;-82
2020/12/16 08:02:24;;;;;;;42.40;25.33;;;3.50;90.80;;;;;;5049676;28;20293;-80
2020/12/16 08:04:55;;;;;;;44.53;25.87;;;3.60;90.80;;;;;;5071583;28;20406;-80
2020/12/16 08:07:25;;;;;;;44.20;26.23;;;3.60;90.70;;;;;;5071010;28;20250;-80
2020/12/16 08:09:56;;;;;;;43.83;25.00;;;3.60;90.70;;;;;;5061989;28;20661;-79
2020/12/16 08:12:25;;;;;;;46.60;26.93;;;3.60;90.60;;;;;;5058681;28;20210;-78
2020/12/16 08:15:05;;;;;;;43.30;24.57;;;3.60;90.60;;;;;;5044895;28;20578;-79
2020/12/16 08:17:36;;;;;;;42.43;24.23;;;3.60;90.60;;;;;;5046957;28;20320;-80
2020/12/16 08:20:14;;;;;;;39.27;23.73;;;3.70;90.60;;;;;;5037520;28;20207;-80
2020/12/16 08:22:46;;;;;;;47.47;26.23;;;3.70;90.60;;;;;;5041872;28;20650;-80
2020/12/16 08:25:16;;;;;;;44.17;26.03;;;3.70;90.70;;;;;;5044110;28;20218;-80
2020/12/16 08:27:45;;;;;;;42.40;24.90;;;3.70;90.60;;;;;;5039565;28;20254;-80
2020/12/16 08:30:15;;;;;;;41.07;24.53;;;3.80;90.60;;;;;;5039636;28;20825;-81
2020/12/16 08:32:51;;;;;;;40.40;23.13;;;3.90;90.50;;;;;;5042251;28;20200;-80
2020/12/16 08:35:24;;;;;;;39.03;22.97;;;3.90;90.50;;;;;;5042673;28;20279;-80
2020/12/16 08:37:56;;;;;;;36.70;22.03;;;4.00;90.50;;;;;;5046303;28;20211;-79
2020/12/16 08:40:26;;;;;;;39.50;22.93;;;4.10;90.40;;;;;;5040172;28;20350;-81
2020/12/16 08:42:53;;;;;;;34.53;21.17;;;4.10;90.30;;;;;;5044547;28;20201;-80
2020/12/16 08:45:22;;;;;;;35.07;21.00;;;4.20;90.10;;;;;;5045504;28;20377;-81
2020/12/16 08:47:50;;;;;;;34.37;20.43;;;4.20;90.20;;;;;;5059786;28;20261;-79
2020/12/16 08:50:27;;;;;;;31.00;18.87;;;4.20;90.20;;;;;;5052759;28;20402;-79
2020/12/16 08:52:54;;;;;;;28.90;18.30;;;4.30;90.10;;;;;;5067887;28;20264;-84
2020/12/16 08:55:22;;;;;;;30.27;19.07;;;4.30;90.10;;;;;;5064985;28;20197;-81
2020/12/16 08:57:56;;;;;;;29.93;18.23;;;4.30;90.10;;;;;;5058076;28;20202;-77
2020/12/16 09:00:29;;;;;;;32.03;18.20;;;4.30;90.10;;;;;;5046325;28;20416;-78
2020/12/16 09:03:06;;;;;;;31.10;18.03;;;4.40;90.00;;;;;;5047522;28;20224;-80
2020/12/16 09:05:37;;;;;;;27.13;17.93;;;4.50;90.10;;;;;;5032050;28;20262;-80
2020/12/16 09:08:06;;;;;;;31.00;18.30;;;4.60;90.00;;;;;;5036302;28;20931;-80
2020/12/16 09:10:35;;;;;;;30.33;16.87;;;4.50;89.90;;;;;;5013602;28;20730;-80
2020/12/16 09:13:15;;;;;;;30.27;17.97;;;4.60;89.80;;;;;;5059519;28;20452;-80
2020/12/16 09:15:49;;;;;;;25.67;16.10;;;4.60;89.90;;;;;;5052388;28;20445;-82
2020/12/16 09:18:29;;;;;;;27.87;17.07;;;4.60;89.70;;;;;;5056230;28;20303;-80
2020/12/16 09:21:00;;;;;;;28.17;16.70;;;4.70;89.80;;;;;;5048437;28;20205;-80
2020/12/16 09:23:29;;;;;;;24.27;15.87;;;4.80;89.60;;;;;;5041847;28;20228;-82
2020/12/16 09:26:00;;;;;;;24.83;16.10;;;4.90;89.20;;;;;;5047639;28;20201;-80
2020/12/16 09:28:37;;;;;;;27.53;15.50;;;4.90;89.30;;;;;;5054340;28;20600;-80
2020/12/16 09:31:16;;;;;;;27.67;16.37;;;5.00;89.00;;;;;;5035770;28;20308;-80
2020/12/16 09:33:55;;;;;;;27.87;16.90;;;4.90;89.10;;;;;;5041500;28;20206;-81
2020/12/16 09:36:25;;;;;;;27.67;15.93;;;4.90;89.20;;;;;;5042058;28;20577;-81
2020/12/16 09:38:57;;;;;;;26.23;16.03;;;5.00;89.00;;;;;;5042036;28;20206;-81
2020/12/16 09:41:26;;;;;;;30.00;16.47;;;5.10;88.90;;;;;;5039081;28;20197;-79
2020/12/16 09:43:54;;;;;;;28.67;16.20;;;5.10;89.00;;;;;;5046948;28;20193;-80
2020/12/16 09:46:24;;;;;;;26.90;16.40;;;5.10;89.10;;;;;;5040797;28;20194;-81
2020/12/16 09:49:00;;;;;;;24.97;15.90;;;5.10;89.00;;;;;;5054779;28;20221;-81
2020/12/16 09:51:35;;;;;;;25.37;16.30;;;5.00;89.10;;;;;;5062210;28;20443;-81
2020/12/16 09:54:02;;;;;;;29.03;16.47;;;5.00;89.20;;;;;;5046434;28;20621;-80
2020/12/16 09:56:30;;;;;;;25.30;15.40;;;5.00;89.40;;;;;;5055854;28;20412;-80
2020/12/16 09:58:58;;;;;;;28.03;16.80;;;5.00;89.30;;;;;;5044625;28;20930;-80
2020/12/16 10:01:28;;;;;;;29.00;16.90;;;5.00;89.40;;;;;;5043821;28;20201;-81
2020/12/16 10:03:55;;;;;;;23.77;15.63;;;5.10;89.60;;;;;;5047201;28;20507;-79
2020/12/16 10:06:23;;;;;;;26.20;16.30;;;5.00;89.60;;;;;;5043841;28;20205;-78
2020/12/16 10:08:52;;;;;;;27.20;16.60;;;5.00;89.60;;;;;;5039681;28;20231;-81
2020/12/16 10:11:19;;;;;;;28.57;17.43;;;5.10;89.80;;;;;;5044487;28;20201;-80
2020/12/16 10:13:47;;;;;;;28.33;17.27;;;5.00;89.70;;;;;;5044921;28;20693;-80
2020/12/16 10:16:19;;;;;;;25.47;15.97;;;5.00;89.80;;;;;;5048397;28;20582;-82
2020/12/16 10:18:47;;;;;;;26.87;16.00;;;5.10;90.00;;;;;;5061551;28;20208;-81
2020/12/16 10:21:15;;;;;;;30.13;17.40;;;5.10;89.90;;;;;;5059621;28;20614;-81
2020/12/16 10:23:42;;;;;;;30.57;17.13;;;5.20;90.00;;;;;;5055449;28;20443;-80
2020/12/16 10:26:10;;;;;;;27.53;17.07;;;5.20;89.90;;;;;;5051388;28;21241;-81
2020/12/16 10:28:40;;;;;;;27.97;16.57;;;5.20;89.90;;;;;;5047766;28;20711;-82
2020/12/16 10:31:08;;;;;;;25.53;16.03;;;5.20;89.80;;;;;;5044643;28;20202;-83
2020/12/16 10:33:36;;;;;;;29.17;18.17;;;5.20;90.00;;;;;;5049074;28;20205;-79
2020/12/16 10:36:04;;;;;;;29.73;16.93;;;5.20;90.00;;;;;;5045012;28;20206;-78
2020/12/16 10:38:32;;;;;;;28.47;16.90;;;5.20;90.10;;;;;;5048169;28;20591;-79
2020/12/16 10:40:59;;;;;;;26.50;16.97;;;5.30;90.10;;;;;;5040673;28;20233;-83
2020/12/16 10:43:27;;;;;;;30.97;17.20;;;5.30;90.10;;;;;;5042990;28;20209;-81
2020/12/16 10:45:56;;;;;;;30.00;17.77;;;5.40;90.10;;;;;;5044784;28;20197;-79
2020/12/16 10:48:23;;;;;;;25.87;16.67;;;5.40;90.00;;;;;;5042125;28;20435;-80
2020/12/16 10:50:51;;;;;;;31.93;17.73;;;5.40;89.80;;;;;;5036541;28;20213;-79
2020/12/16 10:53:19;;;;;;;31.07;18.70;;;5.40;89.90;;;;;;5054135;28;20698;-77
2020/12/16 10:55:47;;;;;;;31.57;17.63;;;5.40;90.00;;;;;;5047462;28;20209;-81
2020/12/16 10:58:15;;;;;;;30.93;18.53;;;5.50;90.00;;;;;;5043680;28;20240;-78
2020/12/16 11:00:44;;;;;;;33.27;18.33;;;5.50;90.00;;;;;;5036007;28;20283;-78
2020/12/16 11:03:11;;;;;;;32.10;18.87;;;5.70;90.10;;;;;;5047045;28;20275;-80
2020/12/16 11:05:39;;;;;;;29.40;18.13;;;5.50;90.00;;;;;;5045547;28;20298;-80
2020/12/16 11:08:07;;;;;;;33.93;19.50;;;5.50;90.10;;;;;;5056913;28;20549;-81
2020/12/16 11:10:34;;;;;;;31.13;18.97;;;5.40;90.30;;;;;;5043478;28;20686;-81
2020/12/16 11:13:04;;;;;;;34.77;20.93;;;5.50;90.20;;;;;;5021675;28;20240;-78
2020/12/16 11:15:33;;;;;;;35.90;20.50;;;5.50;90.40;;;;;;5039428;28;20680;-80
2020/12/16 11:18:00;;;;;;;39.70;21.43;;;5.50;90.40;;;;;;5044029;28;20268;-79
2020/12/16 11:20:28;;;;;;;37.50;21.37;;;5.50;90.40;;;;;;5044936;28;20250;-79
2020/12/16 11:22:56;;;;;;;35.57;20.33;;;5.60;90.50;;;;;;5064129;28;20297;-79
2020/12/16 11:25:23;;;;;;;36.87;20.93;;;5.60;90.40;;;;;;5053680;28;20201;-80
2020/12/16 11:27:51;;;;;;;38.40;22.27;;;5.60;90.50;;;;;;5050182;28;20278;-78
2020/12/16 11:30:19;;;;;;;35.10;21.47;;;5.70;90.40;;;;;;5033809;28;20388;-80
2020/12/16 11:32:48;;;;;;;37.87;21.83;;;5.60;90.40;;;;;;5039847;28;20399;-79
2020/12/16 11:35:15;;;;;;;38.63;21.30;;;5.70;90.50;;;;;;5045107;28;20201;-78
2020/12/16 11:37:44;;;;;;;41.33;20.93;;;5.70;90.40;;;;;;5030235;28;20210;-80
2020/12/16 11:40:12;;;;;;;38.03;21.67;;;5.70;90.40;;;;;;5034896;28;20296;-80
2020/12/16 11:42:41;;;;;;;40.37;21.90;;;5.70;90.40;;;;;;5042718;28;20195;-80
2020/12/16 11:45:09;;;;;;;35.53;21.07;;;5.80;90.30;;;;;;5062354;28;20431;-82
2020/12/16 11:47:38;;;;;;;42.87;22.97;;;5.70;90.30;;;;;;5072215;28;20277;-83
2020/12/16 11:50:08;;;;;;;39.93;21.57;;;5.70;90.40;;;;;;5054007;28;20340;-79
2020/12/16 11:52:38;;;;;;;36.43;21.57;;;5.70;90.40;;;;;;5055675;28;20374;-80
2020/12/16 11:55:06;;;;;;;39.50;23.17;;;5.80;90.50;;;;;;5040009;28;20217;-80
2020/12/16 11:57:33;;;;;;;44.83;24.33;;;5.80;90.50;;;;;;5043532;28;20441;-79
2020/12/16 12:00:01;;;;;;;50.30;23.93;;;5.80;90.50;;;;;;5039513;28;20272;-80
2020/12/16 12:02:30;;;;;;;42.57;25.17;;;5.80;90.40;;;;;;5035532;28;20552;-80
2020/12/16 12:05:03;;;;;;;46.87;24.97;;;5.80;90.50;;;;;;5051541;28;20208;-80
2020/12/16 12:07:32;;;;;;;50.13;25.37;;;5.70;90.60;;;;;;5045603;28;20196;-78
2020/12/16 12:10:00;;;;;;;49.10;25.97;;;5.70;90.70;;;;;;5046316;28;20741;-81
2020/12/16 12:12:28;;;;;;;48.87;26.93;;;5.70;90.70;;;;;;5039603;28;20987;-79
2020/12/16 12:14:56;;;;;;;58.67;27.80;;;5.80;90.70;;;;;;5053359;28;20451;-78
2020/12/16 12:17:24;;;;;;;48.20;26.67;;;5.80;90.70;;;;;;5066502;28;20217;-80
2020/12/16 12:19:51;;;;;;;53.07;27.77;;;5.70;90.90;;;;;;5062194;28;20537;-80
2020/12/16 12:22:19;;;;;;;51.37;26.57;;;5.70;90.90;;;;;;5059133;28;20548;-80
2020/12/16 12:24:49;;;;;;;54.40;27.00;;;5.70;90.90;;;;;;5061765;28;20300;-80
2020/12/16 12:27:19;;;;;;;50.10;26.67;;;5.70;90.90;;;;;;5055207;28;20265;-79
2020/12/16 12:29:46;;;;;;;49.20;25.27;;;5.70;90.90;;;;;;5055654;28;20247;-81
2020/12/16 12:32:18;;;;;;;52.60;27.43;;;5.80;91.00;;;;;;5058395;28;20212;-80
2020/12/16 12:34:45;;;;;;;53.10;26.70;;;5.70;91.00;;;;;;5054221;28;20523;-80
2020/12/16 12:37:13;;;;;;;51.17;27.33;;;5.70;91.00;;;;;;5054055;28;20205;-80
2020/12/16 12:39:50;;;;;;;51.33;27.33;;;5.70;91.10;;;;;;5067717;28;20205;-82
2020/12/16 12:42:18;;;;;;;50.73;26.43;;;5.70;91.10;;;;;;5067298;28;20568;-82
2020/12/16 12:44:45;;;;;;;47.60;26.70;;;5.70;91.20;;;;;;5070929;28;20333;-82
2020/12/16 12:47:13;;;;;;;48.07;25.60;;;5.70;91.30;;;;;;5072951;28;20281;-81
2020/12/16 12:49:43;;;;;;;47.80;25.63;;;5.70;91.20;;;;;;5068963;28;20229;-82